Time;durP1;ratioP1;P1;durP2;ratioP2;P2;SDS_P1;SDS_P2;PMS_P1;PMS_P2;Temp;Humidity;BMP_temperature;BMP_pressure;BME280_temperature;BME280_humidity;BME280_pressure;Samples;Min_cycle;Max_cycle;Signal;HPM_P1;HPM_P2
2022/03/15 00:02:18;;;;;;;25.27;8.75;;;2.90;99.90;;;;;;5066722;28;20477;-70
2022/03/15 00:04:44;;;;;;;22.60;8.88;;;2.80;99.90;;;;;;5067489;28;20040;-71
2022/03/15 00:07:15;;;;;;;19.67;8.43;;;2.80;99.90;;;;;;5067839;28;20866;-70
2022/03/15 00:09:42;;;;;;;19.95;9.32;;;2.80;99.90;;;;;;5069827;28;20189;-70
2022/03/15 00:12:09;;;;;;;29.85;12.10;;;2.70;99.90;;;;;;5085296;28;20045;-70
2022/03/15 00:14:37;;;;;;;37.25;13.10;;;2.80;99.90;;;;;;5079552;28;20385;-70
2022/03/15 00:17:07;;;;;;;30.25;12.27;;;3.00;99.90;;;;;;5087126;28;20384;-70
2022/03/15 00:19:33;;;;;;;25.80;11.73;;;2.90;99.90;;;;;;5060134;28;20037;-69
2022/03/15 00:21:59;;;;;;;23.52;11.27;;;2.90;99.90;;;;;;5071546;28;20044;-70
2022/03/15 00:24:25;;;;;;;23.23;10.60;;;2.90;99.90;;;;;;5053756;28;20036;-70
2022/03/15 00:26:53;;;;;;;32.05;11.88;;;3.30;99.90;;;;;;5071154;28;20123;-71
2022/03/15 00:29:22;;;;;;;30.15;12.05;;;2.90;99.90;;;;;;5087576;28;20048;-71
2022/03/15 00:31:48;;;;;;;31.08;12.50;;;2.80;99.90;;;;;;5087481;28;20202;-70
2022/03/15 00:34:14;;;;;;;28.73;13.13;;;2.80;99.90;;;;;;5088177;28;20531;-70
2022/03/15 00:36:40;;;;;;;35.90;14.32;;;2.90;99.90;;;;;;5063702;28;20055;-70
2022/03/15 00:39:06;;;;;;;36.28;14.45;;;2.90;99.90;;;;;;5071450;28;20455;-70
2022/03/15 00:41:32;;;;;;;42.33;14.20;;;2.80;99.90;;;;;;5088101;28;20406;-70
2022/03/15 00:43:58;;;;;;;36.20;13.65;;;2.80;99.90;;;;;;5054543;28;20090;-70
2022/03/15 00:46:24;;;;;;;29.90;12.38;;;2.70;99.90;;;;;;5065125;28;20051;-70
2022/03/15 00:48:50;;;;;;;27.85;12.80;;;2.70;99.90;;;;;;5067579;28;20051;-70
2022/03/15 00:51:15;;;;;;;35.33;13.75;;;2.90;99.90;;;;;;5050979;28;20040;-70
2022/03/15 00:53:42;;;;;;;36.15;14.13;;;2.90;99.90;;;;;;5045563;28;20037;-70
2022/03/15 00:56:07;;;;;;;37.08;14.32;;;2.90;99.90;;;;;;5070918;28;20033;-70
2022/03/15 00:58:34;;;;;;;39.75;14.73;;;3.00;99.90;;;;;;5070859;28;20474;-70
2022/03/15 01:01:00;;;;;;;41.20;16.08;;;3.00;99.90;;;;;;5087684;28;20489;-70
2022/03/15 01:03:25;;;;;;;40.22;14.70;;;3.10;99.90;;;;;;5066188;28;20044;-70
2022/03/15 01:05:52;;;;;;;40.58;14.32;;;3.00;99.90;;;;;;5077187;28;20476;-70
2022/03/15 01:08:18;;;;;;;42.10;15.45;;;3.00;99.90;;;;;;5030378;28;20128;-70
2022/03/15 01:10:44;;;;;;;34.40;13.85;;;3.10;99.90;;;;;;5087879;28;20123;-70
2022/03/15 01:13:11;;;;;;;44.40;14.88;;;3.00;99.90;;;;;;5086992;28;20036;-70
2022/03/15 01:15:43;;;;;;;36.53;14.70;;;3.00;99.90;;;;;;5088028;28;20048;-70
2022/03/15 01:18:13;;;;;;;38.65;15.05;;;3.00;99.90;;;;;;5045678;28;20123;-70
2022/03/15 01:20:41;;;;;;;43.35;16.17;;;3.10;99.90;;;;;;5097249;28;20105;-70
2022/03/15 01:23:07;;;;;;;45.75;15.82;;;3.10;99.90;;;;;;5060404;28;20485;-70
2022/03/15 01:25:33;;;;;;;42.10;14.88;;;3.10;99.90;;;;;;5071965;28;20078;-70
2022/03/15 01:27:59;;;;;;;45.33;16.30;;;3.10;99.90;;;;;;5082271;28;20380;-70
2022/03/15 01:30:25;;;;;;;41.60;16.63;;;3.10;99.90;;;;;;5081689;28;20044;-70
2022/03/15 01:32:51;;;;;;;53.88;17.15;;;3.10;99.90;;;;;;5074097;28;20059;-70
2022/03/15 01:35:18;;;;;;;46.55;16.90;;;3.00;99.90;;;;;;5087578;28;20480;-70
2022/03/15 01:37:43;;;;;;;42.08;16.35;;;3.00;99.90;;;;;;5051604;28;20142;-71
2022/03/15 01:40:10;;;;;;;45.05;17.95;;;3.10;99.90;;;;;;5062280;28;20049;-72
2022/03/15 01:42:36;;;;;;;53.92;19.02;;;3.20;99.90;;;;;;5049136;28;20048;-70
2022/03/15 01:45:04;;;;;;;53.22;19.42;;;3.10;99.90;;;;;;5086612;28;20461;-70
2022/03/15 01:47:30;;;;;;;58.00;20.30;;;3.10;99.90;;;;;;5064066;28;20049;-71
2022/03/15 01:49:56;;;;;;;55.85;18.27;;;3.20;99.90;;;;;;5064096;28;20058;-70
2022/03/15 01:52:22;;;;;;;53.25;19.02;;;3.20;99.90;;;;;;5065166;28;20132;-70
2022/03/15 01:54:49;;;;;;;43.00;16.83;;;3.00;99.90;;;;;;5066936;28;20049;-70
2022/03/15 01:57:16;;;;;;;46.67;17.70;;;3.10;99.90;;;;;;5052529;28;20040;-70
2022/03/15 01:59:43;;;;;;;49.55;17.90;;;2.90;99.90;;;;;;5068759;28;20041;-70
2022/03/15 02:02:10;;;;;;;54.63;19.25;;;3.00;99.90;;;;;;5065347;28;20052;-70
2022/03/15 02:04:39;;;;;;;61.72;20.10;;;3.00;99.90;;;;;;5063056;28;20065;-70
2022/03/15 02:07:10;;;;;;;85.90;21.33;;;3.10;99.90;;;;;;5085192;28;20196;-70
2022/03/15 02:09:37;;;;;;;113.30;20.00;;;3.00;99.90;;;;;;5070757;28;20075;-69
2022/03/15 02:12:03;;;;;;;59.90;18.00;;;3.90;99.90;;;;;;5064446;28;20058;-71
2022/03/15 02:14:29;;;;;;;51.70;19.42;;;2.80;99.90;;;;;;5067333;28;20080;-70
2022/03/15 02:16:55;;;;;;;134.13;19.65;;;2.80;99.90;;;;;;5063117;28;20469;-70
2022/03/15 02:19:22;;;;;;;52.28;17.55;;;2.70;99.90;;;;;;5080924;28;20087;-70
2022/03/15 02:21:49;;;;;;;59.60;19.35;;;2.70;99.90;;;;;;5068623;28;20045;-70
2022/03/15 02:24:16;;;;;;;63.70;21.75;;;2.80;99.90;;;;;;5071166;28;20047;-70
2022/03/15 02:26:42;;;;;;;59.17;21.25;;;2.80;99.90;;;;;;5067275;28;20051;-70
2022/03/15 02:29:08;;;;;;;73.63;24.38;;;2.80;99.90;;;;;;5085659;28;20454;-70
2022/03/15 02:31:34;;;;;;;53.63;21.23;;;2.90;99.90;;;;;;5069610;28;20119;-70
2022/03/15 02:34:00;;;;;;;82.28;22.42;;;2.90;99.90;;;;;;5071896;28;20120;-70
2022/03/15 02:36:26;;;;;;;53.45;21.92;;;2.80;99.90;;;;;;5070610;28;20433;-71
2022/03/15 02:38:51;;;;;;;60.47;22.23;;;2.70;99.90;;;;;;5074957;28;20376;-70
2022/03/15 02:41:17;;;;;;;127.35;23.05;;;2.70;99.90;;;;;;5067938;28;20052;-70
2022/03/15 02:43:44;;;;;;;269.48;23.20;;;2.60;99.90;;;;;;5031802;28;20041;-71
2022/03/15 02:46:11;;;;;;;330.10;25.63;;;2.50;99.90;;;;;;5060245;28;20044;-70
2022/03/15 02:48:37;;;;;;;125.70;16.48;;;2.50;99.90;;;;;;5069564;28;20419;-71
2022/03/15 02:51:10;;;;;;;49.63;18.65;;;2.40;99.90;;;;;;5090584;28;20041;-71
2022/03/15 02:53:37;;;;;;;40.45;19.73;;;2.40;99.90;;;;;;5072180;28;20123;-70
2022/03/15 02:56:10;;;;;;;55.20;22.42;;;2.60;99.90;;;;;;5088710;28;20048;-70
2022/03/15 02:58:40;;;;;;;38.80;18.92;;;2.60;99.90;;;;;;5064143;28;20048;-71
2022/03/15 03:01:07;;;;;;;42.20;18.92;;;2.70;99.90;;;;;;5054890;28;20083;-70
2022/03/15 03:03:34;;;;;;;43.85;19.33;;;2.70;99.90;;;;;;5055845;28;20045;-70
2022/03/15 03:06:00;;;;;;;38.65;19.40;;;2.70;99.90;;;;;;5089471;28;20079;-70
2022/03/15 03:08:27;;;;;;;161.50;24.10;;;2.70;99.90;;;;;;5069557;28;20041;-70
2022/03/15 03:10:57;;;;;;;55.95;15.05;;;2.70;99.90;;;;;;5071280;28;20049;-70
2022/03/15 03:13:26;;;;;;;33.72;16.73;;;2.70;99.90;;;;;;5068037;28;20048;-70
2022/03/15 03:15:57;;;;;;;46.22;16.00;;;3.60;99.90;;;;;;5069674;28;20051;-70
2022/03/15 03:18:32;;;;;;;62.88;23.95;;;2.80;99.90;;;;;;5088370;28;20102;-70
2022/03/15 03:21:01;;;;;;;50.53;21.13;;;2.80;99.90;;;;;;5070553;28;20377;-70
2022/03/15 03:23:29;;;;;;;52.95;22.90;;;2.90;99.90;;;;;;5068945;28;20052;-70
2022/03/15 03:25:56;;;;;;;70.68;26.90;;;3.10;99.90;;;;;;5053872;28;20036;-70
2022/03/15 03:28:23;;;;;;;70.30;28.30;;;3.20;99.90;;;;;;5067500;28;20434;-70
2022/03/15 03:30:49;;;;;;;70.65;28.90;;;3.20;99.90;;;;;;5071788;28;20075;-70
2022/03/15 03:33:17;;;;;;;82.47;29.60;;;3.30;99.90;;;;;;5067534;28;20095;-71
2022/03/15 03:35:43;;;;;;;64.30;26.30;;;3.40;99.90;;;;;;5070908;28;20194;-70
2022/03/15 03:38:10;;;;;;;58.38;25.92;;;3.90;99.90;;;;;;5067946;28;20058;-70
2022/03/15 03:40:36;;;;;;;47.97;22.50;;;3.40;99.90;;;;;;5085853;28;20044;-70
2022/03/15 03:43:02;;;;;;;71.80;27.67;;;3.40;99.90;;;;;;5083901;28;20044;-70
2022/03/15 03:45:28;;;;;;;57.92;24.17;;;3.50;99.90;;;;;;5068348;28;20491;-70
2022/03/15 03:47:53;;;;;;;63.00;25.63;;;3.50;99.90;;;;;;5069990;28;20040;-70
2022/03/15 03:50:19;;;;;;;58.45;25.27;;;4.40;99.90;;;;;;5087339;28;20469;-70
2022/03/15 03:52:45;;;;;;;57.13;27.23;;;3.50;99.90;;;;;;5083200;28;20039;-71
2022/03/15 03:55:11;;;;;;;58.88;25.30;;;3.50;99.90;;;;;;5069017;28;20044;-70
2022/03/15 03:57:38;;;;;;;60.00;25.83;;;3.60;99.90;;;;;;5087550;28;20047;-70
2022/03/15 04:00:06;;;;;;;58.85;25.67;;;4.10;99.90;;;;;;5068519;28;20049;-70
2022/03/15 04:02:32;;;;;;;47.92;19.80;;;3.60;99.90;;;;;;5068461;28;20477;-69
2022/03/15 04:04:58;;;;;;;60.50;22.25;;;3.50;99.90;;;;;;5063426;28;20055;-70
2022/03/15 04:07:24;;;;;;;47.47;19.33;;;3.40;99.90;;;;;;5071218;28;20052;-70
2022/03/15 04:09:51;;;;;;;45.88;20.65;;;3.30;99.90;;;;;;5054831;28;20037;-70
2022/03/15 04:12:19;;;;;;;48.90;19.15;;;3.20;99.90;;;;;;5088131;28;20384;-70
2022/03/15 04:14:46;;;;;;;48.13;20.55;;;3.20;99.90;;;;;;5059407;28;20076;-70
2022/03/15 04:17:13;;;;;;;51.17;22.63;;;3.20;99.90;;;;;;5088362;28;20097;-70
2022/03/15 04:19:39;;;;;;;61.08;25.60;;;3.30;99.90;;;;;;5087759;28;20048;-70
2022/03/15 04:22:05;;;;;;;63.05;26.48;;;3.40;99.90;;;;;;5086110;28;20041;-70
2022/03/15 04:24:32;;;;;;;62.95;27.33;;;3.30;99.90;;;;;;5068532;28;20041;-70
2022/03/15 04:26:59;;;;;;;64.80;27.35;;;3.50;99.90;;;;;;5087042;28;20076;-70
2022/03/15 04:29:26;;;;;;;70.25;29.35;;;3.50;99.90;;;;;;5074269;28;20059;-71
2022/03/15 04:31:52;;;;;;;74.07;29.90;;;3.60;99.90;;;;;;5086539;28;20076;-70
2022/03/15 04:34:18;;;;;;;73.45;31.10;;;3.70;99.90;;;;;;5049577;28;20052;-71
2022/03/15 04:36:45;;;;;;;71.40;31.70;;;3.80;99.90;;;;;;5070681;28;20481;-70
2022/03/15 04:39:12;;;;;;;83.80;30.90;;;3.90;99.90;;;;;;5064870;28;20089;-70
2022/03/15 04:41:39;;;;;;;73.97;31.27;;;3.90;99.90;;;;;;5086258;28;20032;-71
2022/03/15 04:44:06;;;;;;;67.95;29.77;;;3.90;99.90;;;;;;5064529;28;20032;-70
2022/03/15 04:46:32;;;;;;;75.20;31.42;;;3.90;99.90;;;;;;5058651;28;20063;-70
2022/03/15 04:48:59;;;;;;;70.78;30.90;;;4.80;99.90;;;;;;5083602;28;20392;-69
2022/03/15 04:51:25;;;;;;;77.82;31.95;;;3.90;99.90;;;;;;5070194;28;20473;-70
2022/03/15 04:53:52;;;;;;;72.30;31.17;;;3.90;99.90;;;;;;5077299;28;20040;-71
2022/03/15 04:56:19;;;;;;;67.47;30.77;;;4.00;99.90;;;;;;5083218;28;20056;-70
2022/03/15 04:58:45;;;;;;;75.35;30.42;;;4.00;99.90;;;;;;5086338;28;20381;-71
2022/03/15 05:01:11;;;;;;;70.20;29.30;;;5.20;99.90;;;;;;5086864;28;20041;-70
2022/03/15 05:03:37;;;;;;;66.32;29.65;;;4.10;99.90;;;;;;5067128;28;20040;-70
2022/03/15 05:06:04;;;;;;;75.80;31.17;;;4.10;99.90;;;;;;5082896;28;20428;-70
2022/03/15 05:08:30;;;;;;;73.40;31.70;;;4.20;99.90;;;;;;5085275;28;20040;-71
2022/03/15 05:11:08;;;;;;;69.90;30.08;;;4.30;99.90;;;;;;5087830;28;20045;-71
2022/03/15 05:13:46;;;;;;;75.93;31.08;;;4.30;99.90;;;;;;5074965;28;20470;-71
2022/03/15 05:16:17;;;;;;;67.95;30.13;;;4.40;99.90;;;;;;5065837;28;20041;-69
2022/03/15 05:18:45;;;;;;;71.57;30.37;;;4.50;99.90;;;;;;5086744;28;20064;-69
2022/03/15 05:21:15;;;;;;;68.03;29.15;;;4.50;99.90;;;;;;5102616;28;20278;-70
2022/03/15 05:23:42;;;;;;;69.15;29.23;;;4.50;99.90;;;;;;5091012;28;20388;-70
2022/03/15 05:26:08;;;;;;;65.15;28.30;;;4.60;99.90;;;;;;5048272;28;20076;-71
2022/03/15 05:28:34;;;;;;;65.13;28.30;;;4.70;99.90;;;;;;5065903;28;20127;-69
2022/03/15 05:31:00;;;;;;;64.80;29.25;;;4.70;99.90;;;;;;5069782;28;20045;-69
2022/03/15 05:33:28;;;;;;;57.85;28.40;;;4.70;99.90;;;;;;5086437;28;20049;-69
2022/03/15 05:35:54;;;;;;;52.25;25.13;;;4.80;99.90;;;;;;5086312;28;20044;-70
2022/03/15 05:38:20;;;;;;;60.22;25.10;;;4.80;99.90;;;;;;5069173;28;20496;-71
2022/03/15 05:40:46;;;;;;;62.08;25.35;;;5.00;99.90;;;;;;5066274;28;20127;-70
2022/03/15 05:43:12;;;;;;;58.83;25.17;;;5.20;99.90;;;;;;5087384;28;20500;-70
2022/03/15 05:45:38;;;;;;;57.13;23.85;;;5.00;99.90;;;;;;5074094;28;20037;-71
2022/03/15 05:48:05;;;;;;;54.88;24.52;;;5.00;99.90;;;;;;5064612;28;20085;-70
2022/03/15 05:50:31;;;;;;;50.40;24.27;;;5.00;99.90;;;;;;5067514;28;20087;-70
2022/03/15 05:52:57;;;;;;;51.78;24.05;;;5.00;99.90;;;;;;5081289;28;20107;-70
2022/03/15 05:55:26;;;;;;;48.75;23.75;;;4.90;99.90;;;;;;5034333;28;20428;-70
2022/03/15 05:57:52;;;;;;;55.67;23.95;;;4.80;99.90;;;;;;5046651;28;20059;-70
2022/03/15 06:00:18;;;;;;;50.88;23.25;;;4.80;99.90;;;;;;5055323;28;20056;-69
2022/03/15 06:02:44;;;;;;;50.90;23.33;;;4.80;99.90;;;;;;5087647;28;20123;-70
2022/03/15 06:05:10;;;;;;;58.53;24.30;;;4.80;99.90;;;;;;5088256;28;20124;-70
2022/03/15 06:07:47;;;;;;;47.80;22.70;;;4.70;99.90;;;;;;5069110;28;20593;-70
2022/03/15 06:10:13;;;;;;;59.40;23.90;;;4.70;99.90;;;;;;5070810;28;20369;-69
2022/03/15 06:12:39;;;;;;;51.55;25.35;;;4.70;99.90;;;;;;5071612;28;20492;-69
2022/03/15 06:15:06;;;;;;;58.88;24.88;;;4.70;99.90;;;;;;5055625;28;20488;-69
2022/03/15 06:17:32;;;;;;;61.67;26.67;;;4.70;99.90;;;;;;5050437;28;20047;-71
2022/03/15 06:19:58;;;;;;;55.55;25.00;;;4.80;99.90;;;;;;5071133;28;20041;-70
2022/03/15 06:22:24;;;;;;;60.92;26.85;;;4.90;99.90;;;;;;5070908;28;20044;-71
2022/03/15 06:24:50;;;;;;;60.30;27.05;;;4.90;99.90;;;;;;5071790;28;20040;-70
2022/03/15 06:27:16;;;;;;;58.30;25.70;;;5.00;99.90;;;;;;5070775;28;20049;-72
2022/03/15 06:29:42;;;;;;;67.75;27.33;;;4.90;99.90;;;;;;5070549;28;20479;-70
2022/03/15 06:32:08;;;;;;;60.55;26.90;;;5.00;99.90;;;;;;5096132;28;20036;-71
2022/03/15 06:34:34;;;;;;;66.82;27.58;;;5.00;99.90;;;;;;5072133;28;20539;-70
2022/03/15 06:37:00;;;;;;;67.43;27.48;;;5.10;99.90;;;;;;5054870;28;20045;-70
2022/03/15 06:39:26;;;;;;;69.40;28.15;;;5.40;99.90;;;;;;5059215;28;20123;-70
2022/03/15 06:41:53;;;;;;;65.22;28.52;;;5.20;99.90;;;;;;5078615;28;20447;-70
2022/03/15 06:44:19;;;;;;;75.70;28.92;;;5.30;99.90;;;;;;5088629;28;20044;-70
2022/03/15 06:46:45;;;;;;;69.60;28.80;;;5.20;99.90;;;;;;5055307;28;20071;-70
2022/03/15 06:49:11;;;;;;;62.88;27.55;;;5.30;99.90;;;;;;5069491;28;20457;-70
2022/03/15 06:51:37;;;;;;;72.13;28.55;;;5.40;99.90;;;;;;5072915;28;20041;-69
2022/03/15 06:54:02;;;;;;;75.78;28.83;;;5.40;99.90;;;;;;5083356;28;20080;-71
2022/03/15 06:56:28;;;;;;;69.20;28.58;;;5.50;99.90;;;;;;5093752;28;20071;-69
2022/03/15 06:58:54;;;;;;;70.53;30.13;;;5.50;99.90;;;;;;5056760;28;20401;-70
2022/03/15 07:01:21;;;;;;;67.57;28.65;;;5.50;99.90;;;;;;5085526;28;20094;-70
2022/03/15 07:03:47;;;;;;;63.75;27.95;;;5.60;99.90;;;;;;5070852;28;20123;-69
2022/03/15 07:06:13;;;;;;;70.22;28.17;;;5.60;99.90;;;;;;5069476;28;20043;-69
2022/03/15 07:08:39;;;;;;;71.63;28.42;;;5.70;99.90;;;;;;5050427;28;20403;-69
2022/03/15 07:11:05;;;;;;;68.50;27.77;;;5.70;99.90;;;;;;5068308;28;20075;-69
2022/03/15 07:13:31;;;;;;;69.60;28.25;;;5.80;99.90;;;;;;5086729;28;20098;-69
2022/03/15 07:15:57;;;;;;;73.03;28.02;;;5.80;99.90;;;;;;5064273;28;20522;-69
2022/03/15 07:18:23;;;;;;;63.17;27.52;;;5.90;99.90;;;;;;5027434;28;20389;-70
2022/03/15 07:20:49;;;;;;;69.55;28.25;;;5.90;99.90;;;;;;5044458;28;20441;-70
2022/03/15 07:23:15;;;;;;;74.93;29.98;;;5.90;99.90;;;;;;5086914;28;20552;-69
2022/03/15 07:25:41;;;;;;;67.38;28.60;;;6.00;99.90;;;;;;5063872;28;20127;-70
2022/03/15 07:28:07;;;;;;;80.13;30.67;;;6.00;99.90;;;;;;5063812;28;20123;-71
2022/03/15 07:30:33;;;;;;;73.03;27.98;;;6.00;99.90;;;;;;5066902;28;20086;-69
2022/03/15 07:32:59;;;;;;;77.32;30.05;;;6.20;99.90;;;;;;5072082;28;20047;-70
2022/03/15 07:35:26;;;;;;;78.30;30.05;;;6.20;99.90;;;;;;5082233;28;20040;-70
2022/03/15 07:37:55;;;;;;;81.28;29.65;;;6.20;99.90;;;;;;5068920;28;20051;-70
2022/03/15 07:40:21;;;;;;;71.53;28.90;;;6.30;99.90;;;;;;5062912;28;20056;-70
2022/03/15 07:42:49;;;;;;;68.95;29.33;;;6.40;99.90;;;;;;5069146;28;20495;-69
2022/03/15 07:45:15;;;;;;;68.57;28.33;;;6.50;99.90;;;;;;5086559;28;20048;-71
2022/03/15 07:47:41;;;;;;;68.97;28.83;;;6.40;99.90;;;;;;5087183;28;20093;-70
2022/03/15 07:50:08;;;;;;;64.50;27.17;;;6.50;99.90;;;;;;5090099;28;20032;-70
2022/03/15 07:52:34;;;;;;;70.90;28.75;;;6.50;99.90;;;;;;5081201;28;20054;-69
2022/03/15 07:54:59;;;;;;;69.70;29.80;;;6.50;99.90;;;;;;5067715;28;20119;-69
2022/03/15 07:57:25;;;;;;;73.72;28.90;;;6.60;99.90;;;;;;5065289;28;20254;-70
2022/03/15 07:59:51;;;;;;;70.50;29.90;;;6.60;99.90;;;;;;5058826;28;20134;-70
2022/03/15 08:02:18;;;;;;;66.78;29.42;;;6.70;99.90;;;;;;5060303;28;20044;-69
2022/03/15 08:04:44;;;;;;;70.20;29.42;;;6.70;99.90;;;;;;5052532;28;20491;-70
2022/03/15 08:07:10;;;;;;;67.45;28.45;;;6.80;99.90;;;;;;5054668;28;20099;-69
2022/03/15 08:09:38;;;;;;;64.63;28.60;;;6.90;99.90;;;;;;5066514;28;20047;-69
2022/03/15 08:12:05;;;;;;;64.07;28.45;;;6.90;99.90;;;;;;5087280;28;20540;-70
2022/03/15 08:14:31;;;;;;;57.13;26.50;;;6.90;99.90;;;;;;5088731;28;20113;-69
2022/03/15 08:16:57;;;;;;;60.90;27.10;;;7.00;99.90;;;;;;5078583;28;20389;-70
2022/03/15 08:19:23;;;;;;;58.65;27.73;;;7.10;99.90;;;;;;5108424;28;20037;-70
2022/03/15 08:21:49;;;;;;;58.50;27.05;;;7.00;99.90;;;;;;5076957;28;20097;-70
2022/03/15 08:24:17;;;;;;;58.83;27.02;;;7.10;99.90;;;;;;5071387;28;20123;-69
2022/03/15 08:26:43;;;;;;;59.90;27.80;;;7.10;99.90;;;;;;5068596;28;20389;-70
2022/03/15 08:29:10;;;;;;;55.75;27.15;;;7.10;99.90;;;;;;5071041;28;20048;-69
2022/03/15 08:31:36;;;;;;;54.30;25.75;;;7.20;99.90;;;;;;5088320;28;20033;-70
2022/03/15 08:34:02;;;;;;;54.53;26.38;;;7.20;99.90;;;;;;5071373;28;20052;-71
2022/03/15 08:36:28;;;;;;;56.17;27.33;;;7.20;99.90;;;;;;5087650;28;20058;-70
2022/03/15 08:38:54;;;;;;;59.10;27.33;;;7.20;99.90;;;;;;5054153;28;20048;-70
2022/03/15 08:41:20;;;;;;;52.47;25.90;;;7.20;99.90;;;;;;5089083;28;20052;-70
2022/03/15 08:43:46;;;;;;;58.00;28.02;;;7.30;99.90;;;;;;5071308;28;20040;-69
2022/03/15 08:46:12;;;;;;;58.70;26.38;;;7.30;99.90;;;;;;5063357;28;20075;-70
2022/03/15 08:48:38;;;;;;;56.42;26.75;;;7.30;99.90;;;;;;5084343;28;20064;-71
2022/03/15 08:51:04;;;;;;;56.08;27.08;;;7.40;99.90;;;;;;5068731;28;20045;-69
2022/03/15 08:53:34;;;;;;;49.10;26.95;;;7.40;99.90;;;;;;5071262;28;20503;-69
2022/03/15 08:56:01;;;;;;;52.80;26.33;;;7.50;99.90;;;;;;5085038;28;20758;-69
2022/03/15 08:58:27;;;;;;;48.88;25.52;;;7.50;99.90;;;;;;5065037;28;20048;-70
2022/03/15 09:00:53;;;;;;;49.65;27.20;;;7.50;99.90;;;;;;5070673;28;20044;-69
2022/03/15 09:03:20;;;;;;;52.55;27.63;;;7.60;99.90;;;;;;5066042;28;20036;-71
2022/03/15 09:05:46;;;;;;;52.65;27.33;;;7.60;99.90;;;;;;5076315;28;20075;-70
2022/03/15 09:08:12;;;;;;;52.35;27.38;;;7.70;99.90;;;;;;5085617;28;20080;-69
2022/03/15 09:10:39;;;;;;;50.60;26.30;;;7.80;99.90;;;;;;5084205;28;20433;-72
2022/03/15 09:13:07;;;;;;;50.00;25.80;;;7.80;99.90;;;;;;5083051;28;20538;-69
2022/03/15 09:15:33;;;;;;;51.65;26.02;;;7.80;99.90;;;;;;5087780;28;20504;-70
2022/03/15 09:17:59;;;;;;;51.53;25.55;;;7.80;99.90;;;;;;5072064;28;20088;-70
2022/03/15 09:20:25;;;;;;;49.97;26.40;;;7.80;99.90;;;;;;5087627;28;20044;-70
2022/03/15 09:22:51;;;;;;;52.60;26.83;;;7.80;99.90;;;;;;5069320;28;20037;-69
2022/03/15 09:25:17;;;;;;;50.33;25.90;;;7.80;99.90;;;;;;5053761;28;20453;-71
2022/03/15 09:27:43;;;;;;;49.97;26.85;;;8.00;99.90;;;;;;5037426;28;20047;-76
2022/03/15 09:30:10;;;;;;;50.03;25.80;;;8.00;99.90;;;;;;5074306;28;20040;-75
2022/03/15 09:32:36;;;;;;;45.08;25.63;;;8.00;99.90;;;;;;5058809;28;20051;-75
2022/03/15 09:35:02;;;;;;;49.28;26.08;;;8.00;99.90;;;;;;5074867;28;20131;-71
2022/03/15 09:37:28;;;;;;;51.03;26.65;;;8.10;99.90;;;;;;5075085;28;20481;-71
2022/03/15 09:39:57;;;;;;;49.97;26.40;;;8.20;99.90;;;;;;5069626;28;20036;-71
2022/03/15 09:42:25;;;;;;;47.20;26.90;;;8.20;99.90;;;;;;5090605;28;20468;-70
2022/03/15 09:44:52;;;;;;;55.58;27.38;;;8.20;99.90;;;;;;5094758;28;20080;-71
2022/03/15 09:47:23;;;;;;;47.50;25.60;;;8.30;99.90;;;;;;5094148;28;20444;-71
2022/03/15 09:49:52;;;;;;;55.63;29.25;;;8.40;99.90;;;;;;5111614;28;20388;-71
2022/03/15 09:52:20;;;;;;;51.97;27.15;;;8.40;99.90;;;;;;5057272;28;20052;-71
2022/03/15 09:54:47;;;;;;;47.72;26.00;;;8.50;99.90;;;;;;5045437;28;20045;-71
2022/03/15 09:57:13;;;;;;;49.08;26.38;;;8.60;99.90;;;;;;5072093;28;20036;-71
2022/03/15 09:59:39;;;;;;;48.92;26.58;;;8.60;99.90;;;;;;5090639;28;20056;-71
2022/03/15 10:02:06;;;;;;;48.90;27.10;;;8.70;99.90;;;;;;5061779;28;20115;-70
2022/03/15 10:04:32;;;;;;;50.60;27.55;;;8.60;99.90;;;;;;5073232;28;20051;-74
2022/03/15 10:06:58;;;;;;;49.35;27.60;;;8.70;99.90;;;;;;5073762;28;20080;-75
2022/03/15 10:09:26;;;;;;;48.75;26.75;;;8.70;99.90;;;;;;5062267;28;20505;-74
2022/03/15 10:11:53;;;;;;;48.30;26.60;;;8.80;99.90;;;;;;5073006;28;20485;-75
2022/03/15 10:14:19;;;;;;;47.58;26.13;;;8.70;99.90;;;;;;5090559;28;20052;-76
2022/03/15 10:16:46;;;;;;;44.55;25.60;;;8.70;99.90;;;;;;5088054;28;20044;-76
2022/03/15 10:19:15;;;;;;;48.85;26.17;;;8.90;99.90;;;;;;5091021;28;20041;-76
2022/03/15 10:21:52;;;;;;;45.15;25.35;;;8.70;99.90;;;;;;5086875;28;20371;-77
2022/03/15 10:24:22;;;;;;;48.25;27.95;;;8.70;99.90;;;;;;5070192;28;20040;-75
2022/03/15 10:26:50;;;;;;;50.78;27.38;;;8.80;99.90;;;;;;5089414;28;20040;-75
2022/03/15 10:29:17;;;;;;;47.78;26.92;;;8.80;99.90;;;;;;5063718;28;20068;-74
2022/03/15 10:31:45;;;;;;;44.25;26.55;;;8.80;99.90;;;;;;5090712;28;20040;-74
2022/03/15 10:34:12;;;;;;;49.78;27.60;;;8.90;99.90;;;;;;5055213;28;20128;-74
2022/03/15 10:36:42;;;;;;;49.38;26.10;;;8.90;99.90;;;;;;5089949;28;20044;-74
2022/03/15 10:39:09;;;;;;;46.92;27.08;;;9.00;99.90;;;;;;5062157;28;20509;-76
2022/03/15 10:42:01;;;;;;;48.05;26.50;;;9.20;99.90;;;;;;5056290;28;20040;-74
2022/03/15 10:44:34;;;;;;;45.55;25.77;;;9.20;99.90;;;;;;5059629;28;20894;-74
2022/03/15 10:47:03;;;;;;;43.47;25.73;;;9.30;99.90;;;;;;5093472;28;20371;-75
2022/03/15 10:49:30;;;;;;;46.40;25.80;;;9.40;99.90;;;;;;5093312;28;20039;-75
2022/03/15 10:51:56;;;;;;;39.45;23.30;;;9.50;99.90;;;;;;5081020;28;20083;-74
2022/03/15 10:54:27;;;;;;;43.13;23.85;;;9.50;99.90;;;;;;5084482;28;20040;-75
2022/03/15 10:56:59;;;;;;;43.05;24.45;;;9.60;99.90;;;;;;5070472;28;20043;-75
2022/03/15 10:59:25;;;;;;;41.65;24.10;;;9.70;99.90;;;;;;5048885;28;20493;-74
2022/03/15 11:01:53;;;;;;;39.63;21.50;;;9.90;99.90;;;;;;5068445;28;20135;-74
2022/03/15 11:04:20;;;;;;;37.35;21.52;;;9.80;99.90;;;;;;5069164;28;20419;-75
2022/03/15 11:06:48;;;;;;;36.80;19.85;;;9.90;99.90;;;;;;5030881;28;20077;-75
2022/03/15 11:09:19;;;;;;;37.45;21.52;;;9.90;99.90;;;;;;5055738;28;20101;-71
2022/03/15 11:11:47;;;;;;;34.07;19.87;;;9.90;99.90;;;;;;5069391;28;20098;-71
2022/03/15 11:14:13;;;;;;;33.47;19.83;;;9.90;99.90;;;;;;5069051;28;20033;-71
2022/03/15 11:16:42;;;;;;;33.92;20.05;;;9.90;99.90;;;;;;5071674;28;20078;-72
2022/03/15 11:19:11;;;;;;;33.85;20.50;;;9.90;99.90;;;;;;5070442;28;20036;-73
2022/03/15 11:21:39;;;;;;;36.80;20.65;;;10.00;99.90;;;;;;5055787;28;20503;-72
2022/03/15 11:24:11;;;;;;;41.08;21.50;;;10.10;99.90;;;;;;5089522;28;20055;-73
2022/03/15 11:26:44;;;;;;;40.05;21.05;;;10.20;99.90;;;;;;5072037;28;20161;-72
2022/03/15 11:29:12;;;;;;;35.80;21.17;;;10.30;99.90;;;;;;5055736;28;20047;-72
2022/03/15 11:31:38;;;;;;;37.25;20.50;;;10.40;99.90;;;;;;5056853;28;20128;-72
2022/03/15 11:34:05;;;;;;;35.55;20.33;;;10.40;99.90;;;;;;5048964;28;20052;-72
2022/03/15 11:36:32;;;;;;;37.20;20.92;;;10.50;99.90;;;;;;5071686;28;20046;-71
2022/03/15 11:39:00;;;;;;;38.05;21.35;;;10.60;99.90;;;;;;5055631;28;20098;-72
2022/03/15 11:41:26;;;;;;;38.88;21.38;;;10.80;99.90;;;;;;5039086;28;20041;-71
2022/03/15 11:44:16;;;;;;;37.28;21.85;;;10.90;99.90;;;;;;5087016;28;20047;-71
2022/03/15 11:47:18;;;;;;;36.70;21.43;;;10.90;99.90;;;;;;5101814;28;20036;-71
2022/03/15 11:50:10;;;;;;;38.30;21.20;;;10.80;99.90;;;;;;5089572;28;20353;-72
2022/03/15 11:53:11;;;;;;;39.40;21.45;;;10.70;99.90;;;;;;5054799;28;20048;-72
2022/03/15 11:56:04;;;;;;;40.05;22.15;;;10.80;99.90;;;;;;5087992;28;20045;-73
2022/03/15 11:58:30;;;;;;;42.90;22.67;;;10.80;99.90;;;;;;5071866;28;20048;-72
2022/03/15 12:01:09;;;;;;;36.88;21.35;;;10.90;99.90;;;;;;5071285;28;20075;-72
2022/03/15 12:03:47;;;;;;;35.58;20.92;;;10.90;99.90;;;;;;5068586;28;20055;-73
2022/03/15 12:06:30;;;;;;;36.33;19.83;;;10.90;99.90;;;;;;5088204;28;20032;-72
2022/03/15 12:09:00;;;;;;;34.10;19.92;;;10.40;99.90;;;;;;5055080;28;20076;-72
2022/03/15 12:11:33;;;;;;;33.00;20.17;;;10.40;99.90;;;;;;5088852;28;20190;-72
2022/03/15 12:14:13;;;;;;;31.67;19.90;;;11.10;99.90;;;;;;5070030;28;20044;-72
2022/03/15 12:16:46;;;;;;;34.92;20.30;;;11.20;99.90;;;;;;5071436;28;20055;-72
2022/03/15 12:19:23;;;;;;;34.88;19.15;;;11.30;99.90;;;;;;5088811;28;20056;-72
2022/03/15 12:21:54;;;;;;;31.02;18.70;;;11.30;99.90;;;;;;5071779;28;20049;-71
2022/03/15 12:24:35;;;;;;;31.50;17.70;;;11.50;99.90;;;;;;5088079;28;20040;-72
2022/03/15 12:27:03;;;;;;;32.73;19.07;;;11.40;99.90;;;;;;5088190;28;20057;-72
2022/03/15 12:29:30;;;;;;;30.55;16.95;;;11.40;99.90;;;;;;5070399;28;20047;-74
2022/03/15 12:31:57;;;;;;;31.40;17.92;;;11.40;99.90;;;;;;5028417;28;20072;-73
2022/03/15 12:34:26;;;;;;;26.17;16.75;;;11.50;99.90;;;;;;5041207;28;20043;-75
2022/03/15 12:36:59;;;;;;;28.02;16.42;;;11.50;99.90;;;;;;5100398;28;20044;-72
2022/03/15 12:39:30;;;;;;;28.17;15.93;;;11.70;99.90;;;;;;5088095;28;20041;-71